createdAt,value
2023-05-25T00:02:14.752Z,12.91
2023-05-25T00:04:48.043Z,12.92
2023-05-25T00:07:18.228Z,12.97
2023-05-25T00:09:46.824Z,12.99
2023-05-25T00:12:15.865Z,12.98
2023-05-25T00:14:45.820Z,12.98
2023-05-25T00:17:14.963Z,12.99
2023-05-25T00:19:48.272Z,12.99
2023-05-25T00:22:17.447Z,12.93
2023-05-25T00:24:46.536Z,12.93
2023-05-25T00:27:15.208Z,12.95
2023-05-25T00:29:46.172Z,12.94
2023-05-25T00:32:15.001Z,12.94
2023-05-25T00:34:43.698Z,12.96
2023-05-25T00:37:14.944Z,12.92
2023-05-25T00:39:43.692Z,12.90
2023-05-25T00:42:13.013Z,12.89
2023-05-25T00:44:42.010Z,12.90
2023-05-25T00:47:11.908Z,12.92
2023-05-25T00:49:42.400Z,12.95
2023-05-25T00:52:13.030Z,12.97
2023-05-25T00:54:41.693Z,12.97
2023-05-25T00:57:13.998Z,12.97
2023-05-25T00:59:51.173Z,13.02
2023-05-25T01:02:28.070Z,13.01
2023-05-25T01:05:03.030Z,13.02
2023-05-25T01:07:34.236Z,13.03
2023-05-25T01:10:11.506Z,12.99
2023-05-25T01:12:45.632Z,12.94
2023-05-25T01:15:17.724Z,12.93
2023-05-25T01:17:48.197Z,12.91
2023-05-25T01:20:17.186Z,12.89
2023-05-25T01:22:53.486Z,12.90
2023-05-25T01:25:29.302Z,12.91
2023-05-25T01:28:03.872Z,12.89
2023-05-25T01:30:34.259Z,12.90
2023-05-25T01:33:07.110Z,12.92
2023-05-25T01:35:38.746Z,12.93
2023-05-25T01:38:10.048Z,12.99
2023-05-25T01:40:38.730Z,13.06
2023-05-25T01:43:07.678Z,13.10
2023-05-25T01:45:38.194Z,13.15
2023-05-25T01:48:15.913Z,13.14
2023-05-25T01:50:55.092Z,13.13
2023-05-25T01:53:30.716Z,13.15
2023-05-25T01:56:02.406Z,13.20
2023-05-25T01:58:36.602Z,13.25
2023-05-25T02:01:07.102Z,13.26
2023-05-25T02:03:40.377Z,13.28
2023-05-25T02:06:09.328Z,13.29
2023-05-25T02:08:38.453Z,13.30
2023-05-25T02:11:09.749Z,13.30
2023-05-25T02:13:39.062Z,13.27
2023-05-25T02:16:09.146Z,13.29
2023-05-25T02:18:38.023Z,13.28
2023-05-25T02:21:09.683Z,13.22
2023-05-25T02:23:39.445Z,13.17
2023-05-25T02:26:09.908Z,13.14
2023-05-25T02:28:40.185Z,13.09
2023-05-25T02:31:08.726Z,13.04
2023-05-25T02:33:38.215Z,13.02
2023-05-25T02:36:08.865Z,13.01
2023-05-25T02:38:38.183Z,13.01
2023-05-25T02:41:09.509Z,12.99
2023-05-25T02:43:39.657Z,13.01
2023-05-25T02:46:08.347Z,13.02
2023-05-25T02:48:37.649Z,13.01
2023-05-25T02:51:07.063Z,13.03
2023-05-25T02:53:36.096Z,13.06
2023-05-25T02:56:10.078Z,13.06
2023-05-25T02:58:39.127Z,13.03
2023-05-25T03:01:17.895Z,13.02
2023-05-25T03:03:51.903Z,13.01
2023-05-25T03:06:24.118Z,12.99
2023-05-25T03:08:58.068Z,12.99
2023-05-25T03:11:27.233Z,13.01
2023-05-25T03:14:01.128Z,13.04
2023-05-25T03:16:35.679Z,13.05
2023-05-25T03:19:05.634Z,13.04
2023-05-25T03:21:36.035Z,13.01
2023-05-25T03:24:07.649Z,13.01
2023-05-25T03:26:36.399Z,12.97
2023-05-25T03:29:06.643Z,12.94
2023-05-25T03:31:43.549Z,12.95
2023-05-25T03:34:12.951Z,13.00
2023-05-25T03:36:45.321Z,13.03
2023-05-25T03:39:14.203Z,13.03
2023-05-25T03:41:43.616Z,13.02
2023-05-25T03:44:12.923Z,13.03
2023-05-25T03:46:52.200Z,12.97
2023-05-25T03:49:22.101Z,12.92
2023-05-25T03:51:52.365Z,12.88
2023-05-25T03:54:25.335Z,12.90
2023-05-25T03:57:12.849Z,12.90
2023-05-25T03:59:44.125Z,12.91
2023-05-25T04:02:20.986Z,12.95
2023-05-25T04:04:54.591Z,13.01
2023-05-25T04:07:24.366Z,13.07
2023-05-25T04:09:53.608Z,13.17
2023-05-25T04:12:24.858Z,13.23
2023-05-25T04:14:58.996Z,13.27
2023-05-25T04:17:28.606Z,13.33
2023-05-25T04:20:04.779Z,13.36
2023-05-25T04:22:39.596Z,13.36
2023-05-25T04:25:12.793Z,13.38
2023-05-25T04:27:41.850Z,13.38
2023-05-25T04:30:16.148Z,13.33
2023-05-25T04:33:03.614Z,13.37
2023-05-25T04:35:57.964Z,13.41
2023-05-25T04:38:34.913Z,13.46
2023-05-25T04:41:07.091Z,13.50
2023-05-25T04:43:36.622Z,13.53
2023-05-25T04:46:07.443Z,13.56
2023-05-25T04:48:40.437Z,13.58
2023-05-25T04:51:14.664Z,13.62
2023-05-25T04:53:46.991Z,13.64
2023-05-25T04:56:17.685Z,13.64
2023-05-25T04:58:54.493Z,13.65
2023-05-25T05:01:25.882Z,13.66
2023-05-25T05:03:55.864Z,13.69
2023-05-25T05:06:27.100Z,13.72
2023-05-25T05:09:01.433Z,13.72
2023-05-25T05:11:45.236Z,13.73
2023-05-25T05:14:16.602Z,13.69
2023-05-25T05:16:50.871Z,13.69
2023-05-25T05:19:20.208Z,13.64
2023-05-25T05:21:54.018Z,13.65
2023-05-25T05:24:26.762Z,13.72
2023-05-25T05:26:58.827Z,13.78
2023-05-25T05:29:57.309Z,13.80
2023-05-25T05:32:26.944Z,13.82
2023-05-25T05:34:57.890Z,13.82
2023-05-25T05:38:01.659Z,13.84
2023-05-25T05:40:30.718Z,13.87
2023-05-25T05:43:07.212Z,13.91
2023-05-25T05:45:36.208Z,13.95
2023-05-25T05:48:09.348Z,13.97
2023-05-25T05:50:41.084Z,14.01
2023-05-25T05:53:11.779Z,14.04
2023-05-25T05:55:40.875Z,14.02
2023-05-25T05:58:10.054Z,14.03
2023-05-25T06:00:38.998Z,14.07
2023-05-25T06:03:09.977Z,14.12
2023-05-25T06:05:38.681Z,14.16
2023-05-25T06:08:09.791Z,14.20
2023-05-25T06:10:39.265Z,14.25
2023-05-25T06:13:12.478Z,14.29
2023-05-25T06:15:41.350Z,14.34
2023-05-25T06:18:13.574Z,14.39
2023-05-25T06:20:46.110Z,14.42
2023-05-25T06:23:17.422Z,14.42
2023-05-25T06:25:47.507Z,14.43
2023-05-25T06:28:17.888Z,14.43
2023-05-25T06:30:47.758Z,14.42
2023-05-25T06:33:17.356Z,14.40
2023-05-25T06:35:47.323Z,14.41
2023-05-25T06:38:17.908Z,14.44
2023-05-25T06:40:46.839Z,14.49
2023-05-25T06:43:16.777Z,14.51
2023-05-25T06:45:56.651Z,14.49
2023-05-25T06:48:28.120Z,14.52
2023-05-25T06:50:59.701Z,14.56
2023-05-25T06:53:31.479Z,14.59
2023-05-25T06:56:01.040Z,14.62
2023-05-25T06:58:32.208Z,14.60
2023-05-25T07:01:03.719Z,14.57
2023-05-25T07:03:38.197Z,14.62
2023-05-25T07:06:08.716Z,14.62
2023-05-25T07:08:38.851Z,14.64
2023-05-25T07:11:10.087Z,14.67
2023-05-25T07:13:39.018Z,14.69
2023-05-25T07:16:09.014Z,14.72
2023-05-25T07:18:40.720Z,14.70
2023-05-25T07:21:14.375Z,14.71
2023-05-25T07:23:45.805Z,14.72
2023-05-25T07:26:17.794Z,14.79
2023-05-25T07:28:46.762Z,14.85
2023-05-25T07:31:16.104Z,14.85
2023-05-25T07:33:46.062Z,14.87
2023-05-25T07:36:15.185Z,14.89
2023-05-25T07:38:44.156Z,15.02
2023-05-25T07:41:13.324Z,15.14
2023-05-25T07:43:41.876Z,15.24
2023-05-25T07:46:10.677Z,15.30
2023-05-25T07:48:42.703Z,15.43
2023-05-25T07:51:11.419Z,15.55
2023-05-25T07:53:42.517Z,15.59
2023-05-25T07:56:11.306Z,15.62
2023-05-25T07:58:40.573Z,15.66
2023-05-25T08:01:09.222Z,15.74
2023-05-25T08:03:48.861Z,15.77
2023-05-25T08:06:19.174Z,15.85
2023-05-25T08:08:50.350Z,15.95
2023-05-25T08:11:26.214Z,16.06
2023-05-25T08:13:55.499Z,16.13
2023-05-25T08:16:24.895Z,16.18
2023-05-25T08:18:56.192Z,16.25
2023-05-25T08:21:27.491Z,16.32
2023-05-25T08:23:57.135Z,16.38
2023-05-25T08:26:41.282Z,16.43
2023-05-25T08:29:16.673Z,16.45
2023-05-25T08:31:49.186Z,16.51
2023-05-25T08:34:18.839Z,16.59
2023-05-25T08:36:48.183Z,16.66
2023-05-25T08:39:18.382Z,16.76
2023-05-25T08:41:48.034Z,16.83
2023-05-25T08:44:17.177Z,16.90
2023-05-25T08:46:48.894Z,16.92
2023-05-25T08:49:18.134Z,16.95
2023-05-25T08:51:50.880Z,17.03
2023-05-25T08:54:22.621Z,17.10
2023-05-25T08:56:57.641Z,17.10
2023-05-25T08:59:37.936Z,17.01
2023-05-25T09:02:21.257Z,17.01
2023-05-25T09:04:50.203Z,16.98
2023-05-25T09:07:20.802Z,16.93
2023-05-25T09:09:50.359Z,16.99
2023-05-25T09:12:24.431Z,17.05
2023-05-25T09:14:54.746Z,17.12
2023-05-25T09:17:27.072Z,17.15
2023-05-25T09:19:56.165Z,17.16
2023-05-25T09:22:25.572Z,17.19
2023-05-25T09:24:55.671Z,17.25
2023-05-25T09:27:27.313Z,17.32
2023-05-25T09:29:59.576Z,17.38
2023-05-25T09:32:28.373Z,17.43
2023-05-25T09:35:08.804Z,17.50
2023-05-25T09:37:37.697Z,17.59
2023-05-25T09:40:10.800Z,17.70
2023-05-25T09:42:39.652Z,17.71
2023-05-25T09:45:11.021Z,17.69
2023-05-25T09:47:41.329Z,17.77
2023-05-25T09:50:12.404Z,17.88
2023-05-25T09:52:42.171Z,18.00
2023-05-25T09:55:12.994Z,18.17
2023-05-25T09:57:42.951Z,18.35
2023-05-25T10:00:15.459Z,18.63
2023-05-25T10:02:44.173Z,19.07
2023-05-25T10:05:13.112Z,19.46
2023-05-25T10:07:44.170Z,19.71
2023-05-25T10:10:16.074Z,20.10
2023-05-25T10:12:45.735Z,20.48
2023-05-25T10:15:16.470Z,20.93
2023-05-25T10:17:51.686Z,21.29
2023-05-25T10:20:26.055Z,21.75
2023-05-25T10:23:07.366Z,22.24
2023-05-25T10:25:40.294Z,22.70
2023-05-25T10:28:14.417Z,23.11
2023-05-25T10:30:44.356Z,23.44
2023-05-25T10:33:13.697Z,23.74
2023-05-25T10:36:01.468Z,23.95
2023-05-25T10:38:34.300Z,24.17
2023-05-25T10:41:05.857Z,24.33
2023-05-25T10:43:35.457Z,24.56
2023-05-25T10:46:07.650Z,24.74
2023-05-25T10:48:37.504Z,24.92
2023-05-25T10:51:07.714Z,25.12
2023-05-25T10:53:38.360Z,25.24
2023-05-25T10:56:10.136Z,25.49
2023-05-25T10:58:43.249Z,25.65
2023-05-25T11:01:13.755Z,25.72
2023-05-25T11:03:53.787Z,25.74
2023-05-25T11:06:44.327Z,25.84
2023-05-25T11:09:27.316Z,26.13
2023-05-25T11:12:03.410Z,26.40
2023-05-25T11:14:36.595Z,26.51
2023-05-25T11:17:09.928Z,26.61
2023-05-25T11:19:49.459Z,26.68
2023-05-25T11:22:20.834Z,26.73
2023-05-25T11:24:50.803Z,26.76
2023-05-25T11:27:27.851Z,26.70
2023-05-25T11:30:00.070Z,26.74
2023-05-25T11:32:29.434Z,26.85
2023-05-25T11:34:58.977Z,26.84
2023-05-25T11:37:30.922Z,26.86
2023-05-25T11:40:00.301Z,26.87
2023-05-25T11:42:30.457Z,26.76
2023-05-25T11:45:06.803Z,26.84
2023-05-25T11:47:37.300Z,26.99
2023-05-25T11:50:16.479Z,26.90
2023-05-25T11:52:45.253Z,26.61
2023-05-25T11:55:14.833Z,26.53
2023-05-25T11:57:43.595Z,26.67
2023-05-25T12:00:25.282Z,26.77
2023-05-25T12:02:54.400Z,26.69
2023-05-25T12:05:25.988Z,26.74
2023-05-25T12:07:54.692Z,26.84
2023-05-25T12:10:24.527Z,26.91
2023-05-25T12:12:57.753Z,26.94
2023-05-25T12:15:28.761Z,26.98
2023-05-25T12:17:57.950Z,27.05
2023-05-25T12:20:27.131Z,27.04
2023-05-25T12:22:57.781Z,26.93
2023-05-25T12:25:27.362Z,26.94
2023-05-25T12:28:14.493Z,26.97
2023-05-25T12:30:43.638Z,27.06
2023-05-25T12:33:17.695Z,27.08
2023-05-25T12:35:48.516Z,26.93
2023-05-25T12:38:18.608Z,26.74
2023-05-25T12:40:47.701Z,26.66
2023-05-25T12:43:17.062Z,26.59
2023-05-25T12:45:46.258Z,26.50
2023-05-25T12:48:15.737Z,26.40
2023-05-25T12:50:58.529Z,26.40
2023-05-25T12:53:28.474Z,26.42
2023-05-25T12:56:12.043Z,26.47
2023-05-25T12:58:40.980Z,26.56
2023-05-25T13:01:11.818Z,26.63
2023-05-25T13:03:40.991Z,26.67
2023-05-25T13:06:10.066Z,26.73
2023-05-25T13:08:38.993Z,26.75
2023-05-25T13:11:09.139Z,26.73
2023-05-25T13:13:41.778Z,26.73
2023-05-25T13:16:11.431Z,26.76
2023-05-25T13:18:40.795Z,26.63
2023-05-25T13:21:09.756Z,26.33
2023-05-25T13:23:38.471Z,26.09
2023-05-25T13:26:07.669Z,26.03
2023-05-25T13:28:36.535Z,25.98
2023-05-25T13:31:05.398Z,25.79
2023-05-25T13:33:36.744Z,25.56
2023-05-25T13:36:07.832Z,25.22
2023-05-25T13:38:37.606Z,24.96
2023-05-25T13:41:06.501Z,24.80
2023-05-25T13:43:35.289Z,24.81
2023-05-25T13:46:07.694Z,24.94
2023-05-25T13:48:38.835Z,25.00
2023-05-25T13:51:08.863Z,24.97
2023-05-25T13:53:37.466Z,24.75
2023-05-25T13:56:07.155Z,24.54
2023-05-25T13:58:36.427Z,24.40
2023-05-25T14:01:05.630Z,24.20
2023-05-25T14:03:34.512Z,24.08
2023-05-25T14:06:04.325Z,23.92
2023-05-25T14:08:33.230Z,23.86
2023-05-25T14:11:02.543Z,23.87
2023-05-25T14:13:31.305Z,23.94
2023-05-25T14:16:00.634Z,23.88
2023-05-25T14:18:31.796Z,23.82
2023-05-25T14:21:04.429Z,23.97
2023-05-25T14:23:33.294Z,24.14
2023-05-25T14:26:03.618Z,24.13
2023-05-25T14:28:32.589Z,24.05
2023-05-25T14:31:01.782Z,23.96
2023-05-25T14:33:30.600Z,23.83
2023-05-25T14:35:59.429Z,23.72
2023-05-25T14:38:29.908Z,23.72
2023-05-25T14:40:58.888Z,23.84
2023-05-25T14:43:27.442Z,23.99
2023-05-25T14:45:56.332Z,24.11
2023-05-25T14:48:26.293Z,24.08
2023-05-25T14:50:55.290Z,24.00
2023-05-25T14:53:26.196Z,23.84
2023-05-25T14:55:54.780Z,23.66
2023-05-25T14:58:25.066Z,23.49
2023-05-25T15:00:54.212Z,23.41
2023-05-25T15:03:25.285Z,23.45
2023-05-25T15:05:54.333Z,23.55
2023-05-25T15:08:24.827Z,23.58
2023-05-25T15:10:56.672Z,23.61
2023-05-25T15:13:28.252Z,23.53
2023-05-25T15:15:59.324Z,23.34
2023-05-25T15:18:28.330Z,23.21
2023-05-25T15:20:57.999Z,23.12
2023-05-25T15:23:27.375Z,23.03
2023-05-25T15:25:57.138Z,22.90
2023-05-25T15:28:27.314Z,22.78
2023-05-25T15:31:00.011Z,22.69
2023-05-25T15:33:48.635Z,22.60
2023-05-25T15:36:22.566Z,22.58
2023-05-25T15:38:53.085Z,22.60
2023-05-25T15:41:23.021Z,22.60
2023-05-25T15:43:57.365Z,22.55
2023-05-25T15:46:27.368Z,22.55
2023-05-25T15:48:56.437Z,22.52
2023-05-25T15:51:27.810Z,22.49
2023-05-25T15:53:56.604Z,22.48
2023-05-25T15:56:26.208Z,22.46
2023-05-25T15:58:55.030Z,22.45
2023-05-25T16:01:25.753Z,22.47
2023-05-25T16:03:54.960Z,22.46
2023-05-25T16:06:25.201Z,22.38
2023-05-25T16:08:54.087Z,22.36
2023-05-25T16:11:24.435Z,22.37
2023-05-25T16:13:53.454Z,22.36
2023-05-25T16:16:24.446Z,22.33
2023-05-25T16:18:53.916Z,22.32
2023-05-25T16:21:25.862Z,22.30
2023-05-25T16:23:54.661Z,22.26
2023-05-25T16:26:24.494Z,22.23
2023-05-25T16:28:53.229Z,22.21
2023-05-25T16:31:22.072Z,22.19
2023-05-25T16:33:50.856Z,22.18
2023-05-25T16:36:20.022Z,22.16
2023-05-25T16:38:51.059Z,22.09
2023-05-25T16:41:20.293Z,22.02
2023-05-25T16:43:49.145Z,21.98
2023-05-25T16:46:18.169Z,21.94
2023-05-25T16:48:50.123Z,21.89
2023-05-25T16:51:19.297Z,21.83
2023-05-25T16:53:48.349Z,21.77
2023-05-25T16:56:18.040Z,21.70
2023-05-25T16:58:46.623Z,21.64
2023-05-25T17:01:18.904Z,21.57
2023-05-25T17:03:47.798Z,21.53
2023-05-25T17:06:18.096Z,21.51
2023-05-25T17:08:48.570Z,21.44
2023-05-25T17:11:17.251Z,21.39
2023-05-25T17:13:45.967Z,21.36
2023-05-25T17:16:15.014Z,21.31
2023-05-25T17:18:43.776Z,21.25
2023-05-25T17:21:12.874Z,21.18
2023-05-25T17:23:41.768Z,21.13
2023-05-25T17:26:10.593Z,21.08
2023-05-25T17:28:39.274Z,21.02
2023-05-25T17:31:09.657Z,20.98
2023-05-25T17:33:38.806Z,20.93
2023-05-25T17:36:08.080Z,20.86
2023-05-25T17:38:37.616Z,20.81
2023-05-25T17:41:06.554Z,20.75
2023-05-25T17:43:35.377Z,20.70
2023-05-25T17:46:04.290Z,20.64
2023-05-25T17:48:33.113Z,20.58
2023-05-25T17:51:02.652Z,20.52
2023-05-25T17:53:31.333Z,20.47
2023-05-25T17:56:00.377Z,20.42
2023-05-25T17:58:33.556Z,20.37
2023-05-25T18:01:03.151Z,20.31
2023-05-25T18:03:32.581Z,20.25
2023-05-25T18:06:02.319Z,20.14
2023-05-25T18:08:31.818Z,20.06
2023-05-25T18:11:01.194Z,19.99
2023-05-25T18:13:29.911Z,19.90
2023-05-25T18:15:59.671Z,19.82
2023-05-25T18:18:28.728Z,19.73
2023-05-25T18:20:57.856Z,19.64
2023-05-25T18:23:27.856Z,19.56
2023-05-25T18:25:56.699Z,19.48
2023-05-25T18:28:29.221Z,19.41
2023-05-25T18:31:00.201Z,19.33
2023-05-25T18:33:29.678Z,19.24
2023-05-25T18:35:58.740Z,19.16
2023-05-25T18:38:27.509Z,19.08
2023-05-25T18:40:56.690Z,18.98
2023-05-25T18:43:27.775Z,18.89
2023-05-25T18:45:58.146Z,18.78
2023-05-25T18:48:27.203Z,18.68
2023-05-25T18:50:56.133Z,18.56
2023-05-25T18:53:26.116Z,18.47
2023-05-25T18:55:55.223Z,18.39
2023-05-25T18:58:25.358Z,18.32
2023-05-25T19:00:58.145Z,18.28
2023-05-25T19:03:27.334Z,18.24
2023-05-25T19:05:57.682Z,18.23
2023-05-25T19:08:27.414Z,18.24
2023-05-25T19:10:56.360Z,18.25
2023-05-25T19:13:26.223Z,18.24
2023-05-25T19:15:55.412Z,18.22
2023-05-25T19:18:25.472Z,18.21
2023-05-25T19:20:54.855Z,18.22
2023-05-25T19:23:24.515Z,18.22
2023-05-25T19:25:53.789Z,18.22
2023-05-25T19:28:22.554Z,18.23
2023-05-25T19:30:53.630Z,18.23
2023-05-25T19:33:22.476Z,18.22
2023-05-25T19:35:52.957Z,18.24
2023-05-25T19:38:28.798Z,18.25
2023-05-25T19:41:05.034Z,18.27
2023-05-25T19:43:34.034Z,18.30
2023-05-25T19:46:03.353Z,18.31
2023-05-25T19:48:32.447Z,18.30
2023-05-25T19:51:02.796Z,18.28
2023-05-25T19:53:31.985Z,18.25
2023-05-25T19:56:02.800Z,18.20
2023-05-25T19:58:31.884Z,18.16
2023-05-25T20:01:00.899Z,18.11
2023-05-25T20:03:31.959Z,18.06
2023-05-25T20:06:01.890Z,18.02
2023-05-25T20:08:30.871Z,17.99
2023-05-25T20:11:01.379Z,17.94
2023-05-25T20:13:31.194Z,17.91
2023-05-25T20:16:09.468Z,17.90
2023-05-25T20:18:38.792Z,17.91
2023-05-25T20:21:08.146Z,17.86
2023-05-25T20:23:36.820Z,17.82
2023-05-25T20:26:06.185Z,17.80
2023-05-25T20:28:37.280Z,17.82
2023-05-25T20:31:06.595Z,17.85
2023-05-25T20:33:35.547Z,17.88
2023-05-25T20:36:05.328Z,17.86
2023-05-25T20:38:34.473Z,17.86
2023-05-25T20:41:03.430Z,17.90
2023-05-25T20:43:36.409Z,17.95
2023-05-25T20:46:07.023Z,17.97
2023-05-25T20:48:43.758Z,17.97
2023-05-25T20:51:37.231Z,17.94
2023-05-25T20:54:06.310Z,17.92
2023-05-25T20:56:34.941Z,17.86
2023-05-25T20:59:03.766Z,17.78
2023-05-25T21:01:32.627Z,17.66
2023-05-25T21:04:01.273Z,17.54
2023-05-25T21:06:31.714Z,17.45
2023-05-25T21:09:01.116Z,17.37
2023-05-25T21:11:29.808Z,17.34
2023-05-25T21:13:58.555Z,17.33
2023-05-25T21:16:27.588Z,17.32
2023-05-25T21:18:56.452Z,17.37
2023-05-25T21:21:27.774Z,17.39
2023-05-25T21:23:56.402Z,17.36
2023-05-25T21:26:27.868Z,17.31
2023-05-25T21:28:56.794Z,17.24
2023-05-25T21:31:26.053Z,17.19
2023-05-25T21:33:55.004Z,17.09
2023-05-25T21:36:24.797Z,17.00
2023-05-25T21:38:53.433Z,16.99
2023-05-25T21:41:22.826Z,17.02
2023-05-25T21:43:52.098Z,17.03
2023-05-25T21:46:20.932Z,17.08
2023-05-25T21:48:49.623Z,17.11
2023-05-25T21:51:18.942Z,17.12
2023-05-25T21:53:47.533Z,17.13
2023-05-25T21:56:16.499Z,17.10
2023-05-25T21:58:45.165Z,17.03
2023-05-25T22:01:14.029Z,16.97
2023-05-25T22:03:42.619Z,16.95
2023-05-25T22:06:11.653Z,16.95
2023-05-25T22:08:40.832Z,17.00
2023-05-25T22:11:09.704Z,17.06
2023-05-25T22:13:38.372Z,17.08
2023-05-25T22:16:07.594Z,17.12
2023-05-25T22:18:38.548Z,17.14
2023-05-25T22:21:07.664Z,17.15
2023-05-25T22:23:36.800Z,17.15
2023-05-25T22:26:05.959Z,17.15
2023-05-25T22:28:34.587Z,17.14
2023-05-25T22:31:03.521Z,17.14
2023-05-25T22:33:32.445Z,17.15
2023-05-25T22:36:01.447Z,17.19
2023-05-25T22:38:29.916Z,17.22
2023-05-25T22:40:58.777Z,17.22
2023-05-25T22:43:27.434Z,17.16
2023-05-25T22:45:57.602Z,17.08
2023-05-25T22:48:27.618Z,17.02
2023-05-25T22:50:56.489Z,16.97
2023-05-25T22:53:25.661Z,16.95
2023-05-25T22:55:54.300Z,16.85
2023-05-25T22:58:22.908Z,16.70
2023-05-25T23:00:53.208Z,16.55
2023-05-25T23:03:22.233Z,16.45
2023-05-25T23:05:50.799Z,16.39
2023-05-25T23:08:19.573Z,16.34
2023-05-25T23:10:48.233Z,16.35
2023-05-25T23:13:18.528Z,16.39
2023-05-25T23:15:48.058Z,16.40
2023-05-25T23:18:17.064Z,16.41
2023-05-25T23:20:46.444Z,16.39
2023-05-25T23:23:15.463Z,16.37
2023-05-25T23:25:44.907Z,16.28
2023-05-25T23:28:14.002Z,16.19
2023-05-25T23:30:42.651Z,16.15
2023-05-25T23:33:11.364Z,16.12
2023-05-25T23:35:40.055Z,16.10
2023-05-25T23:38:08.981Z,16.09
2023-05-25T23:40:37.622Z,16.08
2023-05-25T23:43:06.379Z,16.08
2023-05-25T23:45:35.503Z,16.05
2023-05-25T23:48:06.761Z,16.04
2023-05-25T23:50:38.764Z,16.01
2023-05-25T23:53:07.901Z,15.98
2023-05-25T23:55:36.623Z,15.95
2023-05-25T23:58:05.603Z,15.92
